sensor_id;sensor_type;location;lat;lon;timestamp;P1;durP1;ratioP1;P2;durP2;ratioP2
71462;SDS011;59266;52.608;13.260;2023-08-31T00:01:43;6.88;;;3.67;;
71462;SDS011;59266;52.608;13.260;2023-08-31T00:04:09;7.50;;;3.63;;
71462;SDS011;59266;52.608;13.260;2023-08-31T00:06:41;9.48;;;4.00;;
71462;SDS011;59266;52.608;13.260;2023-08-31T00:09:08;6.30;;;3.30;;
71462;SDS011;59266;52.608;13.260;2023-08-31T00:11:36;7.18;;;3.50;;
71462;SDS011;59266;52.608;13.260;2023-08-31T00:14:03;6.97;;;3.72;;
71462;SDS011;59266;52.608;13.260;2023-08-31T00:16:30;8.30;;;3.85;;
71462;SDS011;59266;52.608;13.260;2023-08-31T00:18:57;8.50;;;3.67;;
71462;SDS011;59266;52.608;13.260;2023-08-31T00:21:24;7.03;;;3.45;;
71462;SDS011;59266;52.608;13.260;2023-08-31T00:23:51;9.38;;;3.58;;
71462;SDS011;59266;52.608;13.260;2023-08-31T00:26:18;7.82;;;3.95;;
71462;SDS011;59266;52.608;13.260;2023-08-31T00:28:44;7.72;;;3.95;;
71462;SDS011;59266;52.608;13.260;2023-08-31T00:31:11;10.02;;;4.03;;
71462;SDS011;59266;52.608;13.260;2023-08-31T00:33:38;7.63;;;4.40;;
71462;SDS011;59266;52.608;13.260;2023-08-31T00:36:05;9.30;;;4.53;;
71462;SDS011;59266;52.608;13.260;2023-08-31T00:38:32;9.88;;;4.80;;
71462;SDS011;59266;52.608;13.260;2023-08-31T00:41:04;8.30;;;4.63;;
71462;SDS011;59266;52.608;13.260;2023-08-31T00:43:37;8.55;;;4.35;;
71462;SDS011;59266;52.608;13.260;2023-08-31T00:46:07;10.90;;;5.22;;
71462;SDS011;59266;52.608;13.260;2023-08-31T00:48:38;9.38;;;5.15;;
71462;SDS011;59266;52.608;13.260;2023-08-31T00:51:07;9.85;;;5.35;;
71462;SDS011;59266;52.608;13.260;2023-08-31T00:53:37;11.68;;;5.68;;
71462;SDS011;59266;52.608;13.260;2023-08-31T00:56:04;8.50;;;4.95;;
71462;SDS011;59266;52.608;13.260;2023-08-31T00:58:43;9.38;;;4.72;;
71462;SDS011;59266;52.608;13.260;2023-08-31T01:09:52;9.55;;;5.65;;
71462;SDS011;59266;52.608;13.260;2023-08-31T01:12:49;11.05;;;5.82;;
71462;SDS011;59266;52.608;13.260;2023-08-31T01:15:23;12.18;;;5.60;;
71462;SDS011;59266;52.608;13.260;2023-08-31T01:17:56;9.25;;;5.47;;
71462;SDS011;59266;52.608;13.260;2023-08-31T01:23:16;11.63;;;5.32;;
71462;SDS011;59266;52.608;13.260;2023-08-31T01:25:48;12.57;;;5.25;;
71462;SDS011;59266;52.608;13.260;2023-08-31T01:28:20;9.50;;;5.40;;
71462;SDS011;59266;52.608;13.260;2023-08-31T01:30:47;13.40;;;5.43;;
71462;SDS011;59266;52.608;13.260;2023-08-31T01:33:15;9.32;;;5.65;;
71462;SDS011;59266;52.608;13.260;2023-08-31T01:35:46;9.40;;;5.05;;
71462;SDS011;59266;52.608;13.260;2023-08-31T01:38:15;9.85;;;4.60;;
71462;SDS011;59266;52.608;13.260;2023-08-31T01:40:49;6.93;;;3.58;;
71462;SDS011;59266;52.608;13.260;2023-08-31T01:43:25;9.32;;;3.78;;
71462;SDS011;59266;52.608;13.260;2023-08-31T01:45:55;7.60;;;4.10;;
71462;SDS011;59266;52.608;13.260;2023-08-31T01:48:23;7.65;;;3.90;;
71462;SDS011;59266;52.608;13.260;2023-08-31T01:50:50;7.60;;;3.40;;
71462;SDS011;59266;52.608;13.260;2023-08-31T01:53:26;7.15;;;3.40;;
71462;SDS011;59266;52.608;13.260;2023-08-31T01:56:02;7.30;;;3.10;;
71462;SDS011;59266;52.608;13.260;2023-08-31T01:58:44;6.82;;;3.10;;
71462;SDS011;59266;52.608;13.260;2023-08-31T02:01:12;6.60;;;2.97;;
71462;SDS011;59266;52.608;13.260;2023-08-31T02:03:41;7.63;;;3.03;;
71462;SDS011;59266;52.608;13.260;2023-08-31T02:06:29;7.07;;;2.95;;
71462;SDS011;59266;52.608;13.260;2023-08-31T02:08:58;6.53;;;2.35;;
71462;SDS011;59266;52.608;13.260;2023-08-31T02:11:30;6.50;;;2.78;;
71462;SDS011;59266;52.608;13.260;2023-08-31T02:14:00;7.97;;;2.90;;
71462;SDS011;59266;52.608;13.260;2023-08-31T02:16:34;7.55;;;3.20;;
71462;SDS011;59266;52.608;13.260;2023-08-31T02:19:01;7.07;;;2.47;;
71462;SDS011;59266;52.608;13.260;2023-08-31T02:21:48;6.47;;;2.60;;
71462;SDS011;59266;52.608;13.260;2023-08-31T02:24:19;5.75;;;2.22;;
71462;SDS011;59266;52.608;13.260;2023-08-31T02:26:47;6.32;;;2.50;;
71462;SDS011;59266;52.608;13.260;2023-08-31T02:29:14;6.22;;;2.60;;
71462;SDS011;59266;52.608;13.260;2023-08-31T02:31:41;5.50;;;2.45;;
71462;SDS011;59266;52.608;13.260;2023-08-31T02:34:08;6.10;;;2.53;;
71462;SDS011;59266;52.608;13.260;2023-08-31T02:36:35;6.90;;;2.70;;
71462;SDS011;59266;52.608;13.260;2023-08-31T02:39:02;5.70;;;2.20;;
71462;SDS011;59266;52.608;13.260;2023-08-31T02:41:29;5.63;;;2.30;;
71462;SDS011;59266;52.608;13.260;2023-08-31T02:43:57;6.65;;;2.45;;
71462;SDS011;59266;52.608;13.260;2023-08-31T02:46:23;6.13;;;2.45;;
71462;SDS011;59266;52.608;13.260;2023-08-31T02:48:50;7.25;;;2.38;;
71462;SDS011;59266;52.608;13.260;2023-08-31T02:51:17;6.22;;;2.47;;
71462;SDS011;59266;52.608;13.260;2023-08-31T02:53:44;6.55;;;2.67;;
71462;SDS011;59266;52.608;13.260;2023-08-31T02:56:11;5.93;;;2.20;;
71462;SDS011;59266;52.608;13.260;2023-08-31T02:58:38;6.00;;;2.17;;
71462;SDS011;59266;52.608;13.260;2023-08-31T03:01:13;6.53;;;2.50;;
71462;SDS011;59266;52.608;13.260;2023-08-31T03:03:41;6.15;;;2.38;;
71462;SDS011;59266;52.608;13.260;2023-08-31T03:06:12;6.38;;;2.40;;
71462;SDS011;59266;52.608;13.260;2023-08-31T03:08:41;7.35;;;2.47;;
71462;SDS011;59266;52.608;13.260;2023-08-31T03:11:11;6.45;;;2.50;;
71462;SDS011;59266;52.608;13.260;2023-08-31T03:13:40;6.47;;;2.45;;
71462;SDS011;59266;52.608;13.260;2023-08-31T03:16:07;5.43;;;2.30;;
71462;SDS011;59266;52.608;13.260;2023-08-31T03:18:34;7.05;;;2.20;;
71462;SDS011;59266;52.608;13.260;2023-08-31T03:21:27;6.25;;;2.65;;
71462;SDS011;59266;52.608;13.260;2023-08-31T03:24:01;5.95;;;2.22;;
71462;SDS011;59266;52.608;13.260;2023-08-31T03:26:29;6.40;;;2.60;;
71462;SDS011;59266;52.608;13.260;2023-08-31T03:29:01;6.28;;;2.50;;
71462;SDS011;59266;52.608;13.260;2023-08-31T03:31:29;7.43;;;2.30;;
71462;SDS011;59266;52.608;13.260;2023-08-31T03:33:59;6.18;;;2.53;;
71462;SDS011;59266;52.608;13.260;2023-08-31T03:36:26;6.05;;;2.42;;
71462;SDS011;59266;52.608;13.260;2023-08-31T03:38:53;5.93;;;2.40;;
71462;SDS011;59266;52.608;13.260;2023-08-31T03:41:20;6.45;;;2.50;;
71462;SDS011;59266;52.608;13.260;2023-08-31T03:43:53;5.65;;;2.42;;
71462;SDS011;59266;52.608;13.260;2023-08-31T03:46:22;6.57;;;2.50;;
71462;SDS011;59266;52.608;13.260;2023-08-31T03:48:49;8.30;;;2.60;;
71462;SDS011;59266;52.608;13.260;2023-08-31T03:51:16;7.20;;;2.63;;
71462;SDS011;59266;52.608;13.260;2023-08-31T03:53:43;5.95;;;2.70;;
71462;SDS011;59266;52.608;13.260;2023-08-31T03:56:10;5.70;;;2.45;;
71462;SDS011;59266;52.608;13.260;2023-08-31T03:58:37;7.57;;;2.70;;
71462;SDS011;59266;52.608;13.260;2023-08-31T04:01:04;9.10;;;3.45;;
71462;SDS011;59266;52.608;13.260;2023-08-31T04:03:31;8.82;;;2.70;;
71462;SDS011;59266;52.608;13.260;2023-08-31T04:06:03;7.82;;;3.22;;
71462;SDS011;59266;52.608;13.260;2023-08-31T04:11:36;6.88;;;2.95;;
71462;SDS011;59266;52.608;13.260;2023-08-31T04:14:03;6.25;;;2.92;;
71462;SDS011;59266;52.608;13.260;2023-08-31T04:16:34;8.18;;;3.63;;
71462;SDS011;59266;52.608;13.260;2023-08-31T04:19:04;10.43;;;3.63;;
71462;SDS011;59266;52.608;13.260;2023-08-31T04:21:33;10.38;;;3.60;;
71462;SDS011;59266;52.608;13.260;2023-08-31T04:24:00;7.15;;;3.10;;
71462;SDS011;59266;52.608;13.260;2023-08-31T04:26:27;8.35;;;3.83;;
71462;SDS011;59266;52.608;13.260;2023-08-31T04:28:56;9.95;;;4.53;;
71462;SDS011;59266;52.608;13.260;2023-08-31T04:31:23;8.68;;;4.15;;
71462;SDS011;59266;52.608;13.260;2023-08-31T04:33:49;9.52;;;4.18;;
71462;SDS011;59266;52.608;13.260;2023-08-31T04:36:20;11.18;;;4.47;;
71462;SDS011;59266;52.608;13.260;2023-08-31T04:38:51;9.90;;;4.80;;
71462;SDS011;59266;52.608;13.260;2023-08-31T04:41:18;10.20;;;4.85;;
71462;SDS011;59266;52.608;13.260;2023-08-31T04:43:51;10.68;;;5.13;;
71462;SDS011;59266;52.608;13.260;2023-08-31T04:46:19;10.75;;;4.88;;
71462;SDS011;59266;52.608;13.260;2023-08-31T04:48:46;11.90;;;5.72;;
71462;SDS011;59266;52.608;13.260;2023-08-31T04:51:34;11.35;;;4.53;;
71462;SDS011;59266;52.608;13.260;2023-08-31T04:54:02;13.95;;;5.40;;
71462;SDS011;59266;52.608;13.260;2023-08-31T04:56:40;12.52;;;5.93;;
71462;SDS011;59266;52.608;13.260;2023-08-31T04:59:07;11.80;;;5.35;;
71462;SDS011;59266;52.608;13.260;2023-08-31T05:01:36;13.00;;;5.50;;
71462;SDS011;59266;52.608;13.260;2023-08-31T05:04:06;12.00;;;5.70;;
71462;SDS011;59266;52.608;13.260;2023-08-31T05:06:33;13.32;;;5.22;;
71462;SDS011;59266;52.608;13.260;2023-08-31T05:09:00;11.43;;;6.18;;
71462;SDS011;59266;52.608;13.260;2023-08-31T05:11:27;15.25;;;6.20;;
71462;SDS011;59266;52.608;13.260;2023-08-31T05:13:54;11.52;;;6.30;;
71462;SDS011;59266;52.608;13.260;2023-08-31T05:16:22;14.13;;;5.90;;
71462;SDS011;59266;52.608;13.260;2023-08-31T05:18:49;12.82;;;5.32;;
71462;SDS011;59266;52.608;13.260;2023-08-31T05:21:16;13.10;;;5.70;;
71462;SDS011;59266;52.608;13.260;2023-08-31T05:23:43;14.60;;;5.72;;
71462;SDS011;59266;52.608;13.260;2023-08-31T05:26:10;13.80;;;6.10;;
71462;SDS011;59266;52.608;13.260;2023-08-31T05:28:37;14.50;;;6.40;;
71462;SDS011;59266;52.608;13.260;2023-08-31T05:31:03;13.55;;;6.20;;
71462;SDS011;59266;52.608;13.260;2023-08-31T05:33:32;14.40;;;6.20;;
71462;SDS011;59266;52.608;13.260;2023-08-31T05:36:01;13.77;;;6.00;;
71462;SDS011;59266;52.608;13.260;2023-08-31T05:38:29;12.25;;;5.78;;
71462;SDS011;59266;52.608;13.260;2023-08-31T05:41:06;12.05;;;5.45;;
71462;SDS011;59266;52.608;13.260;2023-08-31T05:43:42;12.63;;;5.95;;
71462;SDS011;59266;52.608;13.260;2023-08-31T05:46:12;12.65;;;6.28;;
71462;SDS011;59266;52.608;13.260;2023-08-31T05:48:40;15.02;;;6.50;;
71462;SDS011;59266;52.608;13.260;2023-08-31T05:51:07;12.48;;;5.90;;
71462;SDS011;59266;52.608;13.260;2023-08-31T05:53:35;13.25;;;6.30;;
71462;SDS011;59266;52.608;13.260;2023-08-31T05:56:05;11.82;;;6.18;;
71462;SDS011;59266;52.608;13.260;2023-08-31T05:58:33;13.55;;;6.38;;
71462;SDS011;59266;52.608;13.260;2023-08-31T06:01:02;13.32;;;6.20;;
71462;SDS011;59266;52.608;13.260;2023-08-31T06:03:45;16.70;;;6.45;;
71462;SDS011;59266;52.608;13.260;2023-08-31T06:06:11;11.27;;;5.82;;
71462;SDS011;59266;52.608;13.260;2023-08-31T06:08:38;13.50;;;5.72;;
71462;SDS011;59266;52.608;13.260;2023-08-31T06:11:05;12.50;;;6.07;;
71462;SDS011;59266;52.608;13.260;2023-08-31T06:13:33;13.30;;;6.32;;
71462;SDS011;59266;52.608;13.260;2023-08-31T06:15:59;12.82;;;6.50;;
71462;SDS011;59266;52.608;13.260;2023-08-31T06:18:26;12.23;;;6.15;;
71462;SDS011;59266;52.608;13.260;2023-08-31T06:20:56;12.07;;;5.88;;
71462;SDS011;59266;52.608;13.260;2023-08-31T06:23:26;12.30;;;6.05;;
71462;SDS011;59266;52.608;13.260;2023-08-31T06:25:53;12.43;;;6.18;;
71462;SDS011;59266;52.608;13.260;2023-08-31T06:28:20;12.60;;;6.20;;
71462;SDS011;59266;52.608;13.260;2023-08-31T06:31:00;10.82;;;5.85;;
71462;SDS011;59266;52.608;13.260;2023-08-31T06:33:26;12.00;;;5.72;;
71462;SDS011;59266;52.608;13.260;2023-08-31T06:35:53;10.85;;;5.75;;
71462;SDS011;59266;52.608;13.260;2023-08-31T06:38:21;13.15;;;5.60;;
71462;SDS011;59266;52.608;13.260;2023-08-31T06:40:48;12.18;;;5.93;;
71462;SDS011;59266;52.608;13.260;2023-08-31T06:43:15;13.40;;;5.75;;
71462;SDS011;59266;52.608;13.260;2023-08-31T06:45:42;10.27;;;5.65;;
71462;SDS011;59266;52.608;13.260;2023-08-31T06:48:09;13.13;;;6.25;;
71462;SDS011;59266;52.608;13.260;2023-08-31T06:50:37;12.60;;;5.60;;
71462;SDS011;59266;52.608;13.260;2023-08-31T06:53:03;12.55;;;5.57;;
71462;SDS011;59266;52.608;13.260;2023-08-31T06:55:31;11.30;;;5.25;;
71462;SDS011;59266;52.608;13.260;2023-08-31T06:57:58;12.43;;;5.05;;
71462;SDS011;59266;52.608;13.260;2023-08-31T07:00:25;11.52;;;5.13;;
71462;SDS011;59266;52.608;13.260;2023-08-31T07:02:52;10.65;;;5.85;;
71462;SDS011;59266;52.608;13.260;2023-08-31T07:05:24;12.50;;;5.47;;
71462;SDS011;59266;52.608;13.260;2023-08-31T07:07:52;10.18;;;4.90;;
71462;SDS011;59266;52.608;13.260;2023-08-31T07:10:21;12.95;;;5.38;;
71462;SDS011;59266;52.608;13.260;2023-08-31T07:12:51;9.23;;;5.05;;
71462;SDS011;59266;52.608;13.260;2023-08-31T07:15:18;12.43;;;4.60;;
71462;SDS011;59266;52.608;13.260;2023-08-31T07:17:48;8.80;;;4.65;;
71462;SDS011;59266;52.608;13.260;2023-08-31T07:20:19;9.27;;;4.55;;
71462;SDS011;59266;52.608;13.260;2023-08-31T07:22:46;11.07;;;4.65;;
71462;SDS011;59266;52.608;13.260;2023-08-31T07:25:12;12.00;;;4.70;;
71462;SDS011;59266;52.608;13.260;2023-08-31T07:27:41;10.10;;;4.05;;
71462;SDS011;59266;52.608;13.260;2023-08-31T07:30:08;12.75;;;3.65;;
71462;SDS011;59266;52.608;13.260;2023-08-31T07:32:36;9.57;;;3.67;;
71462;SDS011;59266;52.608;13.260;2023-08-31T07:35:05;11.80;;;3.78;;
71462;SDS011;59266;52.608;13.260;2023-08-31T07:37:33;9.90;;;3.40;;
71462;SDS011;59266;52.608;13.260;2023-08-31T07:39:59;10.82;;;3.58;;
71462;SDS011;59266;52.608;13.260;2023-08-31T07:42:26;9.32;;;3.45;;
71462;SDS011;59266;52.608;13.260;2023-08-31T07:44:56;7.95;;;2.88;;
71462;SDS011;59266;52.608;13.260;2023-08-31T07:47:22;6.15;;;2.80;;
71462;SDS011;59266;52.608;13.260;2023-08-31T07:49:49;6.97;;;2.72;;
71462;SDS011;59266;52.608;13.260;2023-08-31T07:52:18;9.93;;;3.40;;
71462;SDS011;59266;52.608;13.260;2023-08-31T07:54:46;9.40;;;2.83;;
71462;SDS011;59266;52.608;13.260;2023-08-31T07:57:13;7.60;;;2.97;;
71462;SDS011;59266;52.608;13.260;2023-08-31T07:59:39;7.75;;;3.05;;
71462;SDS011;59266;52.608;13.260;2023-08-31T08:02:07;9.15;;;2.70;;
71462;SDS011;59266;52.608;13.260;2023-08-31T08:04:34;7.15;;;2.20;;
71462;SDS011;59266;52.608;13.260;2023-08-31T08:07:01;7.20;;;2.45;;
71462;SDS011;59266;52.608;13.260;2023-08-31T08:09:29;6.68;;;2.28;;
71462;SDS011;59266;52.608;13.260;2023-08-31T08:12:03;7.82;;;2.45;;
71462;SDS011;59266;52.608;13.260;2023-08-31T08:14:30;7.28;;;1.85;;
71462;SDS011;59266;52.608;13.260;2023-08-31T08:16:57;6.35;;;1.88;;
71462;SDS011;59266;52.608;13.260;2023-08-31T08:19:24;6.35;;;2.20;;
71462;SDS011;59266;52.608;13.260;2023-08-31T08:21:51;6.50;;;2.22;;
71462;SDS011;59266;52.608;13.260;2023-08-31T08:24:18;6.22;;;1.90;;
71462;SDS011;59266;52.608;13.260;2023-08-31T08:26:48;6.05;;;2.00;;
71462;SDS011;59266;52.608;13.260;2023-08-31T08:29:15;5.93;;;1.77;;
71462;SDS011;59266;52.608;13.260;2023-08-31T08:31:42;5.50;;;1.63;;
71462;SDS011;59266;52.608;13.260;2023-08-31T08:34:09;5.10;;;1.40;;
71462;SDS011;59266;52.608;13.260;2023-08-31T08:36:35;4.72;;;1.60;;
71462;SDS011;59266;52.608;13.260;2023-08-31T08:39:03;5.55;;;1.50;;
71462;SDS011;59266;52.608;13.260;2023-08-31T08:41:29;6.22;;;1.30;;
71462;SDS011;59266;52.608;13.260;2023-08-31T08:44:01;6.32;;;1.67;;
71462;SDS011;59266;52.608;13.260;2023-08-31T08:46:30;4.72;;;1.40;;
71462;SDS011;59266;52.608;13.260;2023-08-31T08:48:59;4.05;;;1.30;;
71462;SDS011;59266;52.608;13.260;2023-08-31T08:51:30;6.45;;;1.65;;
71462;SDS011;59266;52.608;13.260;2023-08-31T08:53:59;4.15;;;1.40;;
71462;SDS011;59266;52.608;13.260;2023-08-31T08:56:26;4.65;;;1.50;;
71462;SDS011;59266;52.608;13.260;2023-08-31T08:58:53;5.35;;;1.52;;
71462;SDS011;59266;52.608;13.260;2023-08-31T09:01:19;5.88;;;1.40;;
71462;SDS011;59266;52.608;13.260;2023-08-31T09:03:49;5.40;;;1.38;;
71462;SDS011;59266;52.608;13.260;2023-08-31T09:06:16;6.10;;;1.42;;
71462;SDS011;59266;52.608;13.260;2023-08-31T09:08:43;5.50;;;1.15;;
71462;SDS011;59266;52.608;13.260;2023-08-31T09:11:12;4.20;;;1.20;;
71462;SDS011;59266;52.608;13.260;2023-08-31T09:13:47;3.97;;;1.13;;
71462;SDS011;59266;52.608;13.260;2023-08-31T09:16:25;6.05;;;1.30;;
71462;SDS011;59266;52.608;13.260;2023-08-31T09:18:58;5.20;;;1.25;;
71462;SDS011;59266;52.608;13.260;2023-08-31T09:21:38;3.92;;;1.10;;
71462;SDS011;59266;52.608;13.260;2023-08-31T09:24:07;6.20;;;1.73;;
71462;SDS011;59266;52.608;13.260;2023-08-31T09:26:39;3.67;;;1.13;;
71462;SDS011;59266;52.608;13.260;2023-08-31T09:29:09;6.45;;;1.40;;
71462;SDS011;59266;52.608;13.260;2023-08-31T09:31:36;7.47;;;1.58;;
71462;SDS011;59266;52.608;13.260;2023-08-31T09:34:03;5.53;;;1.30;;
71462;SDS011;59266;52.608;13.260;2023-08-31T09:36:30;3.25;;;1.15;;
71462;SDS011;59266;52.608;13.260;2023-08-31T09:38:58;6.45;;;1.30;;
71462;SDS011;59266;52.608;13.260;2023-08-31T09:41:25;3.40;;;1.20;;
71462;SDS011;59266;52.608;13.260;2023-08-31T09:43:52;5.18;;;1.30;;
71462;SDS011;59266;52.608;13.260;2023-08-31T09:46:18;5.10;;;1.48;;
71462;SDS011;59266;52.608;13.260;2023-08-31T09:48:47;4.53;;;1.25;;
71462;SDS011;59266;52.608;13.260;2023-08-31T09:51:19;3.50;;;1.02;;
71462;SDS011;59266;52.608;13.260;2023-08-31T09:53:50;3.97;;;1.20;;
71462;SDS011;59266;52.608;13.260;2023-08-31T09:56:23;6.10;;;1.33;;
71462;SDS011;59266;52.608;13.260;2023-08-31T09:58:54;6.22;;;1.20;;
71462;SDS011;59266;52.608;13.260;2023-08-31T10:01:21;5.65;;;1.45;;
71462;SDS011;59266;52.608;13.260;2023-08-31T10:03:55;4.55;;;1.20;;
71462;SDS011;59266;52.608;13.260;2023-08-31T10:06:22;3.50;;;1.30;;
71462;SDS011;59266;52.608;13.260;2023-08-31T10:08:49;6.90;;;1.50;;
71462;SDS011;59266;52.608;13.260;2023-08-31T10:11:20;4.57;;;1.17;;
71462;SDS011;59266;52.608;13.260;2023-08-31T10:13:48;5.35;;;1.38;;
71462;SDS011;59266;52.608;13.260;2023-08-31T10:16:16;6.10;;;1.20;;
71462;SDS011;59266;52.608;13.260;2023-08-31T10:18:46;7.93;;;1.20;;
71462;SDS011;59266;52.608;13.260;2023-08-31T10:21:17;5.95;;;1.20;;
71462;SDS011;59266;52.608;13.260;2023-08-31T10:26:40;4.82;;;1.20;;
71462;SDS011;59266;52.608;13.260;2023-08-31T10:29:07;5.10;;;1.20;;
71462;SDS011;59266;52.608;13.260;2023-08-31T10:31:54;5.05;;;1.15;;
71462;SDS011;59266;52.608;13.260;2023-08-31T10:34:33;5.55;;;1.42;;
71462;SDS011;59266;52.608;13.260;2023-08-31T10:37:03;4.38;;;1.33;;
71462;SDS011;59266;52.608;13.260;2023-08-31T10:39:46;3.63;;;1.08;;
71462;SDS011;59266;52.608;13.260;2023-08-31T10:42:13;5.63;;;1.25;;
71462;SDS011;59266;52.608;13.260;2023-08-31T10:44:41;4.93;;;1.10;;
71462;SDS011;59266;52.608;13.260;2023-08-31T10:47:10;2.22;;;0.82;;
71462;SDS011;59266;52.608;13.260;2023-08-31T10:49:36;5.25;;;1.30;;
71462;SDS011;59266;52.608;13.260;2023-08-31T10:52:14;4.10;;;1.27;;
71462;SDS011;59266;52.608;13.260;2023-08-31T10:55:07;6.00;;;1.30;;
71462;SDS011;59266;52.608;13.260;2023-08-31T10:57:35;4.13;;;1.15;;
71462;SDS011;59266;52.608;13.260;2023-08-31T11:00:02;3.28;;;1.13;;
71462;SDS011;59266;52.608;13.260;2023-08-31T11:02:30;4.20;;;1.30;;
71462;SDS011;59266;52.608;13.260;2023-08-31T11:05:00;5.47;;;1.27;;
71462;SDS011;59266;52.608;13.260;2023-08-31T11:07:39;4.97;;;1.40;;
71462;SDS011;59266;52.608;13.260;2023-08-31T11:10:08;5.18;;;1.45;;
71462;SDS011;59266;52.608;13.260;2023-08-31T11:12:36;5.57;;;1.30;;
71462;SDS011;59266;52.608;13.260;2023-08-31T11:15:03;6.20;;;1.52;;
71462;SDS011;59266;52.608;13.260;2023-08-31T11:17:33;5.45;;;1.42;;
71462;SDS011;59266;52.608;13.260;2023-08-31T11:20:01;6.45;;;1.50;;
71462;SDS011;59266;52.608;13.260;2023-08-31T11:22:31;5.53;;;1.30;;
71462;SDS011;59266;52.608;13.260;2023-08-31T11:25:01;7.95;;;1.75;;
71462;SDS011;59266;52.608;13.260;2023-08-31T11:27:30;7.53;;;1.60;;
71462;SDS011;59266;52.608;13.260;2023-08-31T11:29:57;5.13;;;1.50;;
71462;SDS011;59266;52.608;13.260;2023-08-31T11:32:26;4.90;;;1.20;;
71462;SDS011;59266;52.608;13.260;2023-08-31T11:34:53;4.18;;;1.20;;
71462;SDS011;59266;52.608;13.260;2023-08-31T11:37:20;6.68;;;1.52;;
71462;SDS011;59266;52.608;13.260;2023-08-31T11:39:50;4.25;;;1.48;;
71462;SDS011;59266;52.608;13.260;2023-08-31T11:42:18;3.20;;;1.08;;
71462;SDS011;59266;52.608;13.260;2023-08-31T11:44:50;5.95;;;1.20;;
71462;SDS011;59266;52.608;13.260;2023-08-31T11:47:19;4.00;;;1.42;;
71462;SDS011;59266;52.608;13.260;2023-08-31T11:49:46;5.75;;;1.60;;
71462;SDS011;59266;52.608;13.260;2023-08-31T11:52:17;6.03;;;1.23;;
71462;SDS011;59266;52.608;13.260;2023-08-31T11:54:45;5.07;;;1.48;;
71462;SDS011;59266;52.608;13.260;2023-08-31T11:57:12;5.13;;;1.80;;
71462;SDS011;59266;52.608;13.260;2023-08-31T11:59:39;3.80;;;1.33;;
71462;SDS011;59266;52.608;13.260;2023-08-31T12:02:06;7.45;;;2.03;;
71462;SDS011;59266;52.608;13.260;2023-08-31T12:04:43;7.75;;;2.20;;
71462;SDS011;59266;52.608;13.260;2023-08-31T12:07:11;8.85;;;2.40;;
71462;SDS011;59266;52.608;13.260;2023-08-31T12:09:42;9.98;;;2.42;;
71462;SDS011;59266;52.608;13.260;2023-08-31T12:12:15;9.45;;;2.53;;
71462;SDS011;59266;52.608;13.260;2023-08-31T12:14:46;11.25;;;2.88;;
71462;SDS011;59266;52.608;13.260;2023-08-31T12:17:13;12.00;;;2.92;;
71462;SDS011;59266;52.608;13.260;2023-08-31T12:19:45;8.23;;;2.20;;
71462;SDS011;59266;52.608;13.260;2023-08-31T12:22:12;6.50;;;2.00;;
71462;SDS011;59266;52.608;13.260;2023-08-31T12:24:41;8.95;;;1.92;;
71462;SDS011;59266;52.608;13.260;2023-08-31T12:27:08;7.03;;;1.85;;
71462;SDS011;59266;52.608;13.260;2023-08-31T12:29:35;7.40;;;1.90;;
71462;SDS011;59266;52.608;13.260;2023-08-31T12:32:02;6.28;;;2.00;;
71462;SDS011;59266;52.608;13.260;2023-08-31T12:34:30;8.18;;;1.60;;
71462;SDS011;59266;52.608;13.260;2023-08-31T12:36:59;7.95;;;2.00;;
71462;SDS011;59266;52.608;13.260;2023-08-31T12:39:27;6.40;;;2.00;;
71462;SDS011;59266;52.608;13.260;2023-08-31T12:41:54;6.70;;;2.00;;
71462;SDS011;59266;52.608;13.260;2023-08-31T12:44:32;6.22;;;2.28;;
71462;SDS011;59266;52.608;13.260;2023-08-31T12:46:58;6.30;;;2.00;;
71462;SDS011;59266;52.608;13.260;2023-08-31T12:49:25;7.65;;;2.40;;
71462;SDS011;59266;52.608;13.260;2023-08-31T12:51:52;6.63;;;1.70;;
71462;SDS011;59266;52.608;13.260;2023-08-31T12:54:20;6.82;;;1.90;;
71462;SDS011;59266;52.608;13.260;2023-08-31T12:56:47;5.05;;;1.55;;
71462;SDS011;59266;52.608;13.260;2023-08-31T12:59:14;5.70;;;2.15;;
71462;SDS011;59266;52.608;13.260;2023-08-31T13:01:41;7.28;;;2.10;;
71462;SDS011;59266;52.608;13.260;2023-08-31T13:04:08;6.25;;;1.85;;
71462;SDS011;59266;52.608;13.260;2023-08-31T13:06:35;4.90;;;2.13;;
71462;SDS011;59266;52.608;13.260;2023-08-31T13:09:03;6.43;;;1.92;;
71462;SDS011;59266;52.608;13.260;2023-08-31T13:11:32;5.07;;;2.30;;
71462;SDS011;59266;52.608;13.260;2023-08-31T13:13:58;6.30;;;2.03;;
71462;SDS011;59266;52.608;13.260;2023-08-31T13:16:26;5.70;;;1.70;;
71462;SDS011;59266;52.608;13.260;2023-08-31T13:18:53;5.80;;;1.80;;
71462;SDS011;59266;52.608;13.260;2023-08-31T13:21:20;5.30;;;1.77;;
71462;SDS011;59266;52.608;13.260;2023-08-31T13:23:47;5.07;;;1.70;;
71462;SDS011;59266;52.608;13.260;2023-08-31T13:26:14;4.88;;;1.67;;
71462;SDS011;59266;52.608;13.260;2023-08-31T13:28:41;6.10;;;1.67;;
71462;SDS011;59266;52.608;13.260;2023-08-31T13:31:09;6.90;;;1.52;;
71462;SDS011;59266;52.608;13.260;2023-08-31T13:33:38;4.78;;;1.65;;
71462;SDS011;59266;52.608;13.260;2023-08-31T13:36:05;4.40;;;1.85;;
71462;SDS011;59266;52.608;13.260;2023-08-31T13:38:41;4.72;;;1.77;;
71462;SDS011;59266;52.608;13.260;2023-08-31T13:41:08;3.42;;;1.27;;
71462;SDS011;59266;52.608;13.260;2023-08-31T13:43:37;3.58;;;1.20;;
71462;SDS011;59266;52.608;13.260;2023-08-31T13:46:03;4.30;;;1.40;;
71462;SDS011;59266;52.608;13.260;2023-08-31T13:48:31;3.45;;;1.27;;
71462;SDS011;59266;52.608;13.260;2023-08-31T13:50:59;2.70;;;1.15;;
71462;SDS011;59266;52.608;13.260;2023-08-31T13:53:25;3.85;;;1.50;;
71462;SDS011;59266;52.608;13.260;2023-08-31T13:55:52;5.40;;;1.90;;
71462;SDS011;59266;52.608;13.260;2023-08-31T13:58:19;2.88;;;1.23;;
71462;SDS011;59266;52.608;13.260;2023-08-31T14:00:46;3.25;;;1.27;;
71462;SDS011;59266;52.608;13.260;2023-08-31T14:03:12;5.40;;;1.55;;
71462;SDS011;59266;52.608;13.260;2023-08-31T14:05:39;3.42;;;1.30;;
71462;SDS011;59266;52.608;13.260;2023-08-31T14:08:06;3.78;;;1.50;;
71462;SDS011;59266;52.608;13.260;2023-08-31T14:10:33;4.88;;;1.70;;
71462;SDS011;59266;52.608;13.260;2023-08-31T14:13:01;6.03;;;1.65;;
71462;SDS011;59266;52.608;13.260;2023-08-31T14:15:28;6.07;;;1.90;;
71462;SDS011;59266;52.608;13.260;2023-08-31T14:17:57;7.38;;;1.90;;
71462;SDS011;59266;52.608;13.260;2023-08-31T14:20:24;7.82;;;1.92;;
71462;SDS011;59266;52.608;13.260;2023-08-31T14:22:50;7.78;;;1.98;;
71462;SDS011;59266;52.608;13.260;2023-08-31T14:25:17;4.72;;;1.42;;
71462;SDS011;59266;52.608;13.260;2023-08-31T14:27:44;4.25;;;1.33;;
71462;SDS011;59266;52.608;13.260;2023-08-31T14:30:13;4.60;;;1.33;;
71462;SDS011;59266;52.608;13.260;2023-08-31T14:32:39;3.90;;;1.40;;
71462;SDS011;59266;52.608;13.260;2023-08-31T14:35:07;4.18;;;1.38;;
71462;SDS011;59266;52.608;13.260;2023-08-31T14:37:34;4.18;;;1.42;;
71462;SDS011;59266;52.608;13.260;2023-08-31T14:40:04;4.90;;;1.45;;
71462;SDS011;59266;52.608;13.260;2023-08-31T14:42:33;5.22;;;1.50;;
71462;SDS011;59266;52.608;13.260;2023-08-31T14:45:00;4.50;;;1.50;;
71462;SDS011;59266;52.608;13.260;2023-08-31T14:47:27;3.40;;;1.20;;
71462;SDS011;59266;52.608;13.260;2023-08-31T14:49:57;4.40;;;1.30;;
71462;SDS011;59266;52.608;13.260;2023-08-31T14:52:26;3.45;;;1.38;;
71462;SDS011;59266;52.608;13.260;2023-08-31T14:54:53;5.35;;;1.50;;
71462;SDS011;59266;52.608;13.260;2023-08-31T14:57:22;4.55;;;1.40;;
71462;SDS011;59266;52.608;13.260;2023-08-31T14:59:49;5.15;;;1.42;;